DW5490 Randolph MA US current weather conditions

sailwx.info

Wind from 198 at 5 knots gusting 15

Air temperature 30.6° C
Dewpoint 21.3° C

Last reported at 2020-Aug-09 19:01 UTC.
Time now 2020-Aug-09 19:58 UTC

Location: N 42°12' W 071°04'.
View on Google Maps.

See reports from other nearby stations

  
Tides and Currents Weather Stations Pressure Air Temp Water Temp Dewpoint Dewpoint Depression Visibility Wind Speed Wind Dir Waves Ship Positions
date/time (UTC)wind fromknots sea level pressurealtimeterstation pressurevisibilityair tempwater tempwave heightnotes
2020-Aug-09 19:01 198 5 gusting 15 30.6
2020-Aug-09 18:30 290 5 gusting 14 31.1
2020-Aug-09 18:15 262 2 gusting 13 30.6
2020-Aug-09 17:46 250 2 gusting 8 30.6
2020-Aug-09 17:31 246 4 gusting 7 30.6
2020-Aug-09 17:15 243 6 gusting 12 30.0
2020-Aug-09 17:01 243 0 gusting 6 29.4
2020-Aug-09 16:45 316 2 gusting 8 29.4
2020-Aug-09 16:30 231 4 gusting 12 30.0
2020-Aug-09 16:15 238 4 gusting 7 29.4
2020-Aug-09 16:01 259 1 gusting 6 30.0
2020-Aug-09 15:31 275 3 gusting 8 28.9
2020-Aug-09 14:30 283 3 gusting 7 27.2
2020-Aug-09 13:45 242 4 gusting 8 26.1
2020-Aug-09 13:30 234 2 gusting 7 25.6
2020-Aug-09 13:15 238 4 gusting 6 24.4
2020-Aug-09 13:01 240 4 gusting 8 23.9
2020-Aug-09 12:46 212 3 gusting 8 23.3
2020-Aug-09 12:31 257 5 gusting 9 22.8
2020-Aug-09 12:16 242 1 gusting 5 22.8
2020-Aug-09 12:01 241 3 gusting 8 21.7
2020-Aug-09 11:45 238 1 gusting 7 21.1
2020-Aug-09 11:17 242 3 gusting 7 20.0
2020-Aug-09 11:01 265 1 gusting 6 20.0
2020-Aug-09 10:46 246 1 gusting 6 19.4
2020-Aug-09 10:15 229 4 gusting 8 19.4
2020-Aug-09 10:00 251 1 gusting 7 19.4
2020-Aug-09 09:46 248 3 gusting 6 19.4
2020-Aug-09 09:30 252 3 gusting 6 19.4
2020-Aug-09 09:15 242 2 gusting 5 19.4
2020-Aug-09 09:01 247 2 gusting 6 19.4
2020-Aug-09 08:47 227 2 gusting 6 19.4
2020-Aug-09 08:30 241 3 gusting 6 19.4
2020-Aug-09 08:15 252 3 gusting 7 19.4
2020-Aug-09 08:00 236 3 gusting 6 19.4
2020-Aug-09 07:46 242 2 gusting 5 19.4
2020-Aug-09 07:30 239 3 gusting 6 19.4
2020-Aug-09 07:17 236 1 gusting 5 19.4
2020-Aug-09 07:00 239 1 gusting 6 20.0
2020-Aug-09 06:45 244 2 gusting 5 20.0
2020-Aug-09 06:31 245 2 gusting 5 20.0
2020-Aug-09 06:16 223 2 gusting 6 20.0
2020-Aug-09 06:01 250 2 gusting 5 20.0
2020-Aug-09 05:46 209 3 gusting 6 20.0
2020-Aug-09 05:30 246 2 gusting 7 20.6
2020-Aug-09 05:15 232 3 gusting 7 20.6
2020-Aug-09 04:45 248 3 gusting 7 20.6
2020-Aug-09 04:30 238 3 gusting 7 20.6
2020-Aug-09 04:15 179 4 gusting 6 20.6
2020-Aug-09 04:02 227 3 gusting 7 21.1
2020-Aug-09 03:46 212 4 gusting 9 21.1
2020-Aug-09 03:31 247 2 gusting 6 21.1
2020-Aug-09 03:15 240 3 gusting 9 21.1
2020-Aug-09 03:00 201 4 gusting 7 21.1
2020-Aug-09 02:31 238 5 gusting 9 21.7
2020-Aug-09 02:16 234 4 gusting 9 21.7
2020-Aug-09 02:00 241 4 gusting 9 22.2
2020-Aug-09 01:45 217 2 gusting 6 22.2
2020-Aug-09 01:30 231 3 gusting 8 22.8
2020-Aug-09 01:15 211 1 gusting 5 22.8
2020-Aug-09 01:00 217 1 gusting 4 22.8
2020-Aug-09 00:46 130 1 gusting 4 22.8
2020-Aug-09 00:30 179 0 gusting 5 23.3
2020-Aug-09 00:15 175 23.9
2020-Aug-09 00:00 179 0 gusting 5 24.4
2020-Aug-08 23:45 136 24.4
2020-Aug-08 23:31 134 25.0
2020-Aug-08 23:15 092 0 gusting 4 25.6
2020-Aug-08 23:01 071 2 gusting 6 26.1
2020-Aug-08 22:46 155 0 gusting 6 26.1
2020-Aug-08 22:17 149 26.7
2020-Aug-08 22:02 131 1 gusting 5 26.7
2020-Aug-08 21:46 117 1 gusting 4 26.7
2020-Aug-08 21:32 117 2 gusting 6 27.2
2020-Aug-08 21:17 142 2 gusting 6 27.2
2020-Aug-08 21:01 105 1 gusting 5 27.2
2020-Aug-08 20:46 087 2 gusting 5 27.8
2020-Aug-08 20:30 074 1 gusting 6 27.8
2020-Aug-08 20:15 152 2 gusting 5 28.3
2020-Aug-08 19:45 042 1 gusting 5 27.8
2020-Aug-08 19:30 131 1 gusting 7 27.8
2020-Aug-08 19:15 057 1 gusting 7 27.8
2020-Aug-08 19:00 080 1 gusting 7 27.8
2020-Aug-08 18:45 081 1 gusting 7 27.8
2020-Aug-08 18:30 053 1 gusting 11 27.2
2020-Aug-08 18:15 026 3 gusting 6 27.8
2020-Aug-08 18:01 080 1 gusting 6 27.8
2020-Aug-08 17:46 144 1 gusting 6 27.8
2020-Aug-08 17:30 188 0 gusting 4 27.2
2020-Aug-08 17:16 237 0 gusting 5 26.7
2020-Aug-08 17:00 032 0 gusting 4 26.7
2020-Aug-08 16:46 148 1 gusting 5 26.1
2020-Aug-08 16:31 163 1 gusting 4 26.1
2020-Aug-08 16:16 032 0 gusting 4 26.1
2020-Aug-08 16:01 313 0 gusting 5 25.0
2020-Aug-08 15:46 005 1 gusting 4 25.0
2020-Aug-08 15:30 017 1 gusting 6 24.4
2020-Aug-08 15:15 098 2 gusting 6 23.9
2020-Aug-08 15:01 106 1 gusting 3 23.3
2020-Aug-08 14:46 078 1 gusting 4 23.3
2020-Aug-08 14:15 052 0 gusting 2 23.3
2020-Aug-08 14:00 050 1 gusting 4 23.3
2020-Aug-08 13:45 074 0 gusting 6 23.3
2020-Aug-08 13:15 331 1 gusting 4 23.3
2020-Aug-08 13:02 087 1 gusting 3 22.2
2020-Aug-08 12:45 046 0 gusting 4 21.7
2020-Aug-08 12:31 071 20.6
2020-Aug-08 12:15 081 0 gusting 4 20.6
2020-Aug-08 12:00 090 20.0
2020-Aug-08 11:47 090 19.4
2020-Aug-08 11:30 093 18.9
2020-Aug-08 11:15 093 18.9
2020-Aug-08 11:00 105 18.3
2020-Aug-08 10:31 106 18.3
2020-Aug-08 10:16 106 18.3
2020-Aug-08 10:01 106 18.3
2020-Aug-08 09:45 106 18.3
2020-Aug-08 09:31 106 18.3
2020-Aug-08 09:15 106 18.3
2020-Aug-08 08:45 106 18.3
2020-Aug-08 08:30 106 18.3
2020-Aug-08 08:16 106 18.3
2020-Aug-08 08:01 106 0 gusting 1 18.3
2020-Aug-08 07:46 106 18.9
2020-Aug-08 07:30 106 18.9
2020-Aug-08 05:46 106 0 gusting 1 18.9
2020-Aug-08 05:30 106 18.3
2020-Aug-08 05:01 106 18.9
2020-Aug-08 04:45 106 18.3
2020-Aug-08 04:30 106 18.9
2020-Aug-08 04:15 106 18.9
2020-Aug-08 03:46 106 0 gusting 2 18.9
2020-Aug-08 03:31 106 18.9
2020-Aug-08 02:45 082 0 gusting 4 19.4
2020-Aug-08 02:31 076 0 gusting 2 19.4
2020-Aug-08 02:00 061 1 gusting 4 20.0
2020-Aug-08 01:46 098 1 gusting 5 20.0
2020-Aug-08 01:30 089 0 gusting 3 20.6
2020-Aug-08 01:16 115 0 gusting 3 20.6
2020-Aug-08 01:01 091 0 gusting 2 20.6
2020-Aug-08 00:30 094 0 gusting 4 21.1
2020-Aug-08 00:15 105 1 gusting 6 21.7
2020-Aug-08 00:00 101 21.7
2020-Aug-07 23:45 112 22.2
2020-Aug-07 23:30 103 1 gusting 4 22.2
2020-Aug-07 23:15 082 1 gusting 4 22.8
2020-Aug-07 23:01 086 1 gusting 4 22.8
2020-Aug-07 22:46 090 0 gusting 3 22.8
2020-Aug-07 22:30 053 0 gusting 4 23.3
2020-Aug-07 22:15 055 0 gusting 4 23.3
2020-Aug-07 22:00 040 0 gusting 5 23.3
2020-Aug-07 21:45 049 1 gusting 3 23.3
2020-Aug-07 21:30 024 2 gusting 6 23.3
2020-Aug-07 21:16 074 1 gusting 5 23.9
2020-Aug-07 21:01 040 0 gusting 4 23.9
2020-Aug-07 20:46 015 1 gusting 6 23.9
2020-Aug-07 20:32 053 2 gusting 5 23.9
2020-Aug-07 20:16 047 0 gusting 4 24.4
2020-Aug-07 20:01 052 0 gusting 5 25.0
2020-Aug-07 19:46 022 0 gusting 3 25.0
2020-Aug-07 19:31 078 0 gusting 3 25.0
2020-Aug-07 19:15 071 0 gusting 4 24.4
2020-Aug-07 19:00 082 0 gusting 6 24.4